Latest Observation

66 Stations

10 Minute Data
as of 5/5/26 10:46 PM PDT
Station Date Time Temp (°F) RH (%) Dew Pt (°F) Wind Spd (mph) Wind Dir (°) Wind Gust (mph) Wind Gst Dir (°) Latest Rain (In) Soil Moist (%) Soil Temp (°F) Daily Rain (In) Daily Min Temp (°F) Daily Max Temp (°F) Daily Max Wind (mph)
Hobart Mills 5/5/26 2240 44.1   7.9 91   9 41.7   5.5 2.1   2.1 W | 267 3.7   3.7 W | 277 0.00 - 32.0   0.0 0.03 34.4   0.0 45.9   0.0 6.0   0.0
Prosser Dam 5/5/26 2240 47.2   10.4 90   6 44.3   8.6 0.8   0.7 WNW | 298 1.9   1.0 WNW | 296 0.00 25.2   4.3 49.3   1.7 0.03 36.7   0.1 62.5   15.7 17.1   2.9
West Incline Village 5/5/26 2240 46.3   14.0 81   18 40.9   8.8 2.7   2.7 NNE | 29 3.4   3.4 NE | 44 0.00 35.1   1.1 43.5   0.5 0.42 32.5   0.8 51.5   10.2 9.3   1.2
Incline Village (Fairview Blvd) 5/5/26 2240 47.0   14.2 79   21 40.8   8.1 0.0   0.0 N | 0 0.0   0.0 NE | 40 0.00 27.9   3.1 49.2   1.5 0.37 33.5   1.4 51.8   9.8 8.1   1.7
Incline Village (Diamond Peak) 5/5/26 2240 46.0   14.4 81   18 40.4   9.1 0.0   0.0 N | 0 0.0   0.0 NW | 306 0.00 10.3   2.2 43.1   0.2 0.07 31.8   0.5 49.6   9.9 8.6   2.6
Incline Village (Mill Creek) 5/5/26 2240 45.1   11.4 90   8 42.2   9.1 0.0   0.0 N | 0 0.0   0.0 ENE | 73 0.00 11.5   1.3 44.6   1.3 0.13 33.8   1.4 53.2   9.6 8.7   3.5
Incline Village (Lakeshore Blvd) 5/5/26 2240 44.2   9.5 92   7 42.2   7.6 0.4   0.4 NE | 44 1.4   1.4 NE | 46 0.00 35.2   4.1 51.7   5.3 0.02 35.8   2.4 51.5   5.7 5.7   2.0
Glenbrook 5/5/26 2240 45.6   11.3 90   7 42.7   9.3 0.0   0.0 N | 0 0.0   0.0 E | 90 0.00 44.3   0.0 44.4   0.4 0.06 34.2   1.6 54.8   9.6 9.9   2.4
Zephyr Cove 5/5/26 2240 47.2   12.3 85   13 42.9   8.5 0.0   0.0 N | 0 0.0   0.0 E | 81 0.00 - 34.3   0.0 0.01 32.6   1.1 54.4   10.4 2.6   1.6
Kingsbury Grade 5/5/26 2240 43.7   11.1 90   7 41.1   9.1 0.9   0.9 N | 11 3.0   3.0 N | 9 0.00 6.9   1.8 50.1   0.4 0.60 32.0   0.4 55.8   12.7 11.4   3.9
South Daggett Pass (Ridge) 5/5/26 2240 45.5   14.0 84   16 41.0   9.5 3.0   3.0 W | 269 7.6   7.6 W | 260 0.00 6.9   0.5 45.4   1.7 0.46 31.2   0.4 51.9   11.8 11.7   13.0
Palomino Valley 5/5/26 2240 57.4   9.4 53   29 40.4   2.5 0.4   1.7 E | 91 3.6   2.4 ENE | 72 0.00 6.9   0.0 65.7   1.7 0.00 46.2   1.2 72.0   7.5 19.9   11.7
East Cold Springs 5/5/26 2240 58.1   14.8 51   32 40.2   1.8 8.0   5.0 WNW | 295 11.7   6.7 WNW | 300 0.00 1.7   0.1 56.8   1.7 0.09 40.3   0.5 66.6   7.5 17.8   7.8
Peavine 5/5/26 2240 57.6   12.5 47   31 37.4   1.3 6.8   3.2 NNE | 24 12.8   3.4 NNW | 332 0.00 - 53.4   0.0 0.00 40.7   0.5 62.4   8.2 16.3   17.4
West Verdi Peak 5/5/26 2240 57.1   17.8 45   43 35.8   0.1 1.8   1.0 NNW | 332 6.5   1.9 N | 354 0.00 22.4   3.8 52.4   2.3 0.00 37.1   1.6 62.6   13.3 14.9   5.3
West Verdi 5/5/26 2240 56.7   14.7 56   37 41.2   1.2 2.4   1.5 WNW | 288 8.9   5.1 WNW | 287 0.00 8.3   0.1 60.3   2.0 0.00 40.2   1.1 68.2   12.6 19.2   13.5
South Verdi 5/5/26 2240 59.9   18.2 49   31 40.5   4.7 8.4   12.9 WSW | 248 12.5   13.5 WSW | 248 0.00 17.1   0.3 59.0   6.5 0.00 41.1   1.2 65.7   16.0 23.4   18.1
Northwest Reno 5/5/26 2240 64.1   19.8 37   43 37.3   1.2 14.9   3.3 NNW | 332 21.1   1.4 NNW | 334 0.00 23.6   0.0 61.4   1.0 0.00 43.5   0.4 67.6   12.2 22.2   27.3
North Lawton 5/5/26 2240 60.6   17.7 44   37 38.7   1.2 8.6   5.4 W | 277 12.8   9.3 W | 272 0.00 - 39.1   0.0 0.00 42.5   0.9 66.8   11.9 16.8   14.2
West Reno (Mogul) 5/5/26 2240 59.4   13.3 55   18 43.4   5.5 1.6   4.5 SW | 222 7.8   11.3 SW | 217 0.00 38.3   0.2 59.7   0.7 0.00 42.6   0.1 66.6   8.2 18.8   10.2
Caughlin (Hunter Lake Trail) 9/16/25 0800 59.7   3.5 41   11 35.9   2.7 0.0   0.0 N | 0 0.0   0.0 ENE | 66 0.00 15.7   0.0 69.8   0.5 0.00 55.7   3.2 67.7   9.1 9.4   0.9
ArrowCreek 5/5/26 2240 58.4   13.6 54   32 41.8   0.8 7.3   0.7 SSW | 197 10.8   1.5 SSW | 198 0.00 - 32.0   0.0 0.00 43.4   0.1 67.2   11.5 18.6   11.7
Tracy 5/5/26 2240 62.0   12.1 55   20 45.5   3.3 3.7   11.6 WSW | 248 6.2   15.3 N | 350 0.00 7.9   0.1 62.1   0.4 0.00 47.8   0.1 70.9   8.3 19.0   3.6
Virginia Highlands 5/5/26 2240 54.7   14.2 59   35 40.8   1.9 3.2   2.3 SE | 134 7.6   3.7 SE | 127 0.00 8.8   0.2 55.0   1.2 0.00 40.1   0.4 61.9   10.0 15.0   5.5
Virginia City 5/5/26 2240 52.4   12.6 63   33 40.4   1.5 3.7   0.3 NE | 49 8.4   0.0 ESE | 118 0.00 8.3   0.0 53.7   0.5 0.01 38.6   1.2 56.7   7.2 21.1   5.0
Six Mile Canyon 9/9/25 0630 60.2   9.6 37   6 33.7   4.8 4.1   2.5 W | 277 6.1   2.9 WNW | 286 0.00 12.5   0.0 75.5   0.7 0.00 57.9   7.6 64.4   1.9 7.0   3.9
Mt Rose Highway 4/30/26 0510 40.8   4.7 47   13 22.3   1.3 2.3   0.2 WSW | 243 4.8   2.1 WSW | 246 0.00 24.1   0.3 43.0   0.8 0.00 40.5   4.7 43.0   5.3 7.7   0.4
Pleasant Valley 5/5/26 2240 54.7   10.9 71   20 45.6   4.1 1.5   0.6 SSE | 168 3.0   0.6 S | 180 0.00 2.8   0.0 59.6   0.2 0.01 43.3   0.0 66.4   13.2 14.8   5.1
New Washoe City 5/5/26 2240 54.0   9.6 66   24 43.1   1.2 3.6   3.6 NNE | 21 5.7   5.7 NNE | 18 0.00 4.4   0.1 56.8   0.5 0.01 42.8   0.3 64.4   12.2 18.5   4.0
Franktown Creek 5/5/26 2240 51.8   7.8 75   21 44.2   1.1 0.4   0.4 NW | 311 2.9   2.9 NNW | 328 0.00 11.2   0.3 53.8   0.5 0.01 42.8   0.2 65.1   13.0 12.3   1.4
Musgrove Creek 5/5/26 2240 57.2   14.5 55   24 41.1   4.4 2.2   1.3 SSW | 213 6.5   2.0 SW | 214 0.00 45.0   0.3 52.1   0.3 0.01 40.8   0.5 62.6   10.8 14.7   10.8
East Carson 11/23/24 0110 28.6   28.4 - - 4.7   11.0 SW | 220 14.7   10.1 SW | 219 0.02 - 50.9   0.1 0.02 -25.9   79.1 42.9   14.6 16.0   10.7
Kings Canyon 5/5/26 2240 51.3   8.2 71   21 42.1   1.2 3.3   2.1 SSW | 200 4.8   1.5 SSW | 197 0.00 15.3   0.2 59.1   4.1 0.05 41.5   0.4 63.2   8.8 15.6   1.5
Carson City (Voltaire Canyon) 5/5/26 2240 56.4   12.7 62   15 43.4   6.7 10.0   1.1 SSW | 193 13.3   3.1 SSW | 204 0.00 2.8   0.1 59.5   1.8 0.01 42.1   0.7 62.7   8.3 19.4   5.0
Jacks Valley 5/5/26 2240 54.6   11.2 62   22 42.0   3.0 3.1   1.0 SE | 132 6.0   1.1 SSE | 150 0.00 13.6   4.0 61.2   4.0 0.13 41.5   1.0 61.8   8.3 16.4   12.7
Genoa 5/5/26 2240 54.1   9.1 69   22 44.3   1.7 0.1   0.1 WNW | 283 3.1   3.1 W | 280 0.00 10.6   5.2 55.0   2.1 0.15 43.2   1.5 64.6   8.5 9.9   10.1
South Genoa (Walleys Hot Springs) 5/5/26 2240 53.9   7.3 71   11 44.6   3.3 6.2   5.7 NNW | 332 8.8   4.7 NNW | 336 0.00 13.9   0.2 60.4   0.9 0.14 44.2   0.2 64.6   7.6 17.6   14.0
SW Gardnerville (HWY 88) 5/5/26 2240 53.0   7.9 69   22 43.2   0.3 9.6   4.1 SE | 127 11.9   4.1 SE | 136 0.00 3.4   0.0 54.6   0.4 0.01 43.2   1.2 63.5   7.5 11.9   16.4
Sheridan 5/5/26 2240 51.9   6.5 68   18 41.5   0.0 2.0   0.1 SSW | 194 3.7   0.2 S | 188 0.00 6.3   4.0 58.3   0.2 0.12 43.1   1.1 64.2   6.8 10.2   5.8
Ruhenstroth 5/5/26 2240 54.1   8.9 64   22 42.1   0.8 3.6   0.7 NE | 37 8.6   0.2 NE | 40 0.00 12.7   0.1 58.2   1.4 0.61 42.2   2.7 63.4   9.0 14.4   15.0
Double Spring 5/5/26 2240 48.0   6.8 75   9 40.4   3.5 6.7   3.9 E | 101 23.5   18.0 E | 96 0.00 30.3   1.7 54.0   0.3 0.33 38.2   0.8 55.9   6.0 23.5   0.5
North Topaz Lake 5/5/26 2240 53.9   10.8 63   22 41.7   2.6 17.3   15.0 NNE | 33 32.0   25.5 NE | 45 0.00 9.1   0.0 54.9   0.1 0.29 40.2   2.1 57.6   4.7 32.0   7.1
Wild Oat Mountain 5/5/26 2240 50.3   8.5 68   11 40.2   4.3 8.8   6.5 NE | 40 14.9   7.9 NNE | 21 0.00 16.5   0.0 57.7   1.1 0.26 38.1   2.0 56.8   4.5 14.9   8.6
Smith Valley 5/5/26 2240 52.3   5.5 66   17 41.1   0.6 7.2   4.8 S | 184 12.8   7.0 E | 92 0.00 5.9   0.1 61.8   1.9 0.29 43.6   1.7 62.9   0.9 25.1   0.6
Pine Grove Mountain 5/5/26 2240 40.0   7.1 83   13 35.3   3.4 10.6   5.0 NNE | 27 28.9   21.0 NNE | 25 0.04 22.3   7.8 47.1   0.7 0.24 31.7   0.2 47.5   4.0 28.9   6.3
Paradise Hill 5/5/26 2240 55.3   0.8 36   17 28.9   8.8 1.8   6.8 W | 272 4.8   5.6 W | 275 0.00 8.0   0.0 61.9   0.4 0.00 43.5   3.3 73.6   2.2 26.0   8.7
Winnemucca 5/5/26 2240 52.4   6.4 59   10 38.6   1.0 4.8   6.0 S | 171 6.1   10.6 S | 178 0.00 6.0   0.0 60.5   0.6 0.00 44.4   0.0 72.4   2.7 24.3   6.5
NE Elko 5/5/26 2240 50.8   1.5 65   1 39.5   1.9 1.4   0.3 ESE | 107 10.6   4.0 SW | 221 0.00 12.4   0.1 59.5   3.1 0.02 44.8   11.3 61.9   12.1 23.8   11.2
North Elko 5/5/26 2240 45.9   3.4 81   5 40.5   1.5 3.1   4.5 SW | 224 5.5   5.6 WSW | 258 0.00 28.4   0.1 56.1   3.2 0.41 43.0   2.5 61.2   10.6 28.8   9.6
South Elko 5/5/26 2240 79.4   31.8 92   14 76.9   35.8 4.0   1.6 SW | 214 5.6   3.1 WSW | 239 0.00 18.6   0.3 56.2   3.9 0.04 46.2   1.2 - 27.7   3.2
Lamoille 1/28/26 1720 33.2   0.5 65   17 22.8   6.3 5.8   1.5 SSE | 166 7.7   1.9 SE | 139 0.00 12.2   0.0 33.4   0.1 0.02 23.5   2.0 36.5   5.9 25.6   17.4
Reid Gardner Sub 5/5/26 2240 68.9   0.2 26   1 32.2   1.0 3.7   2.7 SSW | 199 5.6   3.7 SSW | 199 0.00 24.7   0.1 74.9   0.6 0.00 54.6   9.7 77.9   2.7 15.5   10.7
Corn Creek 5/5/26 2240 62.8   2.3 30   3 31.0   4.7 7.1   2.1 SSW | 197 10.3   2.2 S | 187 0.00 4.0   0.0 75.8   1.1 0.00 52.1   7.1 71.2   4.5 18.6   22.5
Lucky Strike 5/5/26 2240 53.3   0.3 36   12 27.3   9.5 5.3   6.0 W | 281 12.5   6.8 W | 268 0.00 4.5   0.0 69.5   0.5 0.00 42.4   8.6 59.4   5.5 17.8   14.4
Lower Angel Peak 5/5/26 2240 41.9   0.2 53   16 26.1   8.0 4.9   0.0 S | 176 6.2   0.4 S | 182 0.00 10.2   0.0 56.1   1.4 0.00 33.6   7.9 54.2   5.8 15.8   9.3
Angel Peak 5/5/26 2240 37.4   1.1 58   26 23.8   15.0 12.7   11.8 NW | 305 21.6   18.4 WNW | 292 0.00 3.4   0.1 48.7   3.7 0.00 29.5   6.7 44.7   4.2 21.6   12.9
Upper Kyle Canyon 5/5/26 2240 41.4   2.1 51   1 24.6   1.4 5.9   0.0 NW | 311 13.5   2.7 NW | 316 0.00 13.7   0.1 54.6   1.6 0.00 30.5   6.2 46.6   5.3 17.9   8.8
Mt Charleston 5/5/26 2240 38.3   1.9 57   5 24.2   0.3 0.8   4.3 W | 267 3.7   7.3 WNW | 300 0.00 18.3   0.0 48.8   0.4 0.00 31.3   8.1 48.0   3.4 15.6   9.7
Mid Kyle Canyon 5/5/26 2240 43.1   2.8 51   12 26.1   4.1 10.2   1.2 WNW | 300 14.8   1.6 WNW | 296 0.00 7.0   0.0 58.6   0.6 0.00 34.8   7.7 54.3   4.8 19.0   12.3
Blue Diamond 5/5/26 2240 63.0   4.9 31   9 32.3   1.8 9.3   7.7 NW | 308 19.2   5.5 WNW | 302 0.00 3.5   0.0 69.9   0.6 0.00 48.1   6.6 69.4   1.0 21.7   7.9
Artesian Sub 5/5/26 2240 72.3   2.9 25   2 34.8   0.1 2.6   2.4 S | 178 8.9   5.6 SSW | 197 0.00 13.3   0.1 74.0   0.1 0.00 59.1   6.0 78.3   2.0 16.4   8.0
North Henderson 5/5/26 2240 72.4   2.6 25   3 34.6   1.0 7.9   2.9 SW | 214 13.5   2.6 SSW | 196 0.00 8.9   0.0 78.9   0.4 0.00 61.6   4.8 77.9   1.7 19.6   8.2
Sandy Valley 5/5/26 2240 64.8   7.0 29   17 31.6   5.2 1.5   1.8 NE | 50 2.7   4.0 NNE | 27 0.00 4.5   0.1 80.7   0.1 0.00 51.0   4.0 69.9   1.5 18.8   7.6
Searchlight 5/5/26 2240 57.8   0.4 39   3 32.7   1.2 3.7   1.7 NNW | 339 5.1   8.6 N | 354 0.00 4.6   0.0 74.8   0.5 0.00 46.9   7.7 67.2   2.2 15.8   14.2
Laughlin 5/5/26 2240 72.2   1.6 29   1 38.6   2.0 4.9   2.1 WSW | 239 7.1   5.0 WSW | 247 0.00 4.1   0.0 83.2   1.0 0.00 63.1   8.8 80.4   2.3 20.0   8.0
31Mission Hills 5/5/26 2240 66.0 27 30.7 8.4 SSE | 162 11.0 E | 100 0.00 3.8 81.6 0.00 50.0 74.0 24.7
Max     79.4 92 76.9 17.3 - 32.0 - 0.04 45.0 83.2 0.61 63.1 80.4 32.0
Avg     54.0 60 38.9 4.6 - 8.7 - 0.00 13.8 57.2 - - - -
Min     37.4 25 23.8 0.0 - 0.0 - 0.00 1.7 32.0 0.00 29.5 44.7 2.6